sensor_id;sensor_type;location;lat;lon;timestamp;P1;P2;P0
70520;PMS5003;58442;52.716;23.560;2022-09-24T00:00:22;17;17;12
70520;PMS5003;58442;52.716;23.560;2022-09-24T00:02:23;16;16;10
70520;PMS5003;58442;52.716;23.560;2022-09-24T00:04:25;13;12;8
70520;PMS5003;58442;52.716;23.560;2022-09-24T00:06:28;13;12;10
70520;PMS5003;58442;52.716;23.560;2022-09-24T00:08:37;10;10;6
70520;PMS5003;58442;52.716;23.560;2022-09-24T00:10:39;13;12;7
70520;PMS5003;58442;52.716;23.560;2022-09-24T00:12:41;10;10;10
70520;PMS5003;58442;52.716;23.560;2022-09-24T00:14:42;15;15;11
70520;PMS5003;58442;52.716;23.560;2022-09-24T00:16:52;13;13;8
70520;PMS5003;58442;52.716;23.560;2022-09-24T00:18:53;13;13;8
70520;PMS5003;58442;52.716;23.560;2022-09-24T00:20:55;18;18;11
70520;PMS5003;58442;52.716;23.560;2022-09-24T00:22:56;11;11;6
70520;PMS5003;58442;52.716;23.560;2022-09-24T00:25:07;15;15;11
70520;PMS5003;58442;52.716;23.560;2022-09-24T00:27:28;14;14;10
70520;PMS5003;58442;52.716;23.560;2022-09-24T00:29:30;13;13;7
70520;PMS5003;58442;52.716;23.560;2022-09-24T00:31:35;17;17;10
70520;PMS5003;58442;52.716;23.560;2022-09-24T00:33:36;13;13;8
70520;PMS5003;58442;52.716;23.560;2022-09-24T00:35:43;13;13;8
70520;PMS5003;58442;52.716;23.560;2022-09-24T00:37:45;14;14;9
70520;PMS5003;58442;52.716;23.560;2022-09-24T00:39:46;14;14;9
70520;PMS5003;58442;52.716;23.560;2022-09-24T00:41:47;2;2;0
70520;PMS5003;58442;52.716;23.560;2022-09-24T00:43:59;11;11;7
70520;PMS5003;58442;52.716;23.560;2022-09-24T00:46:06;14;14;9
70520;PMS5003;58442;52.716;23.560;2022-09-24T00:48:15;15;12;9
70520;PMS5003;58442;52.716;23.560;2022-09-24T00:50:18;14;14;10
70520;PMS5003;58442;52.716;23.560;2022-09-24T00:52:26;11;11;8
70520;PMS5003;58442;52.716;23.560;2022-09-24T00:54:28;10;10;8
70520;PMS5003;58442;52.716;23.560;2022-09-24T00:56:29;11;11;6
70520;PMS5003;58442;52.716;23.560;2022-09-24T00:58:35;14;11;7
70520;PMS5003;58442;52.716;23.560;2022-09-24T01:00:39;11;11;9
70520;PMS5003;58442;52.716;23.560;2022-09-24T01:02:45;12;11;8
70520;PMS5003;58442;52.716;23.560;2022-09-24T01:04:50;11;10;8
70520;PMS5003;58442;52.716;23.560;2022-09-24T01:06:52;18;16;10
70520;PMS5003;58442;52.716;23.560;2022-09-24T01:08:55;11;11;8
70520;PMS5003;58442;52.716;23.560;2022-09-24T01:15:25;11;11;7
70520;PMS5003;58442;52.716;23.560;2022-09-24T01:17:38;13;11;8
70520;PMS5003;58442;52.716;23.560;2022-09-24T01:22:01;9;9;7
70520;PMS5003;58442;52.716;23.560;2022-09-24T01:26:32;12;12;8
70520;PMS5003;58442;52.716;23.560;2022-09-24T01:33:09;13;11;8
70520;PMS5003;58442;52.716;23.560;2022-09-24T01:37:34;12;12;8
70520;PMS5003;58442;52.716;23.560;2022-09-24T01:39:39;9;9;6
70520;PMS5003;58442;52.716;23.560;2022-09-24T01:41:45;12;12;9
70520;PMS5003;58442;52.716;23.560;2022-09-24T01:43:47;10;10;6
70520;PMS5003;58442;52.716;23.560;2022-09-24T01:45:49;14;13;8
70520;PMS5003;58442;52.716;23.560;2022-09-24T01:47:51;14;13;10
70520;PMS5003;58442;52.716;23.560;2022-09-24T01:49:52;13;12;8
70520;PMS5003;58442;52.716;23.560;2022-09-24T01:51:54;12;12;8
70520;PMS5003;58442;52.716;23.560;2022-09-24T01:58:48;11;11;8
70520;PMS5003;58442;52.716;23.560;2022-09-24T02:03:13;12;12;7
70520;PMS5003;58442;52.716;23.560;2022-09-24T02:05:23;10;10;8
70520;PMS5003;58442;52.716;23.560;2022-09-24T02:07:34;10;10;7
70520;PMS5003;58442;52.716;23.560;2022-09-24T02:09:40;9;9;7
70520;PMS5003;58442;52.716;23.560;2022-09-24T02:11:43;10;10;7
70520;PMS5003;58442;52.716;23.560;2022-09-24T02:14:04;12;12;8
70520;PMS5003;58442;52.716;23.560;2022-09-24T02:16:03;10;9;7
70520;PMS5003;58442;52.716;23.560;2022-09-24T02:18:08;10;9;7
70520;PMS5003;58442;52.716;23.560;2022-09-24T02:20:12;16;16;7
70520;PMS5003;58442;52.716;23.560;2022-09-24T02:22:19;13;13;10
70520;PMS5003;58442;52.716;23.560;2022-09-24T02:24:24;12;11;9
70520;PMS5003;58442;52.716;23.560;2022-09-24T02:26:37;11;11;8
70520;PMS5003;58442;52.716;23.560;2022-09-24T02:28:38;10;10;7
70520;PMS5003;58442;52.716;23.560;2022-09-24T02:30:48;10;10;6
70520;PMS5003;58442;52.716;23.560;2022-09-24T02:32:54;14;14;8
70520;PMS5003;58442;52.716;23.560;2022-09-24T02:34:57;12;11;7
70520;PMS5003;58442;52.716;23.560;2022-09-24T02:39:11;11;11;7
70520;PMS5003;58442;52.716;23.560;2022-09-24T02:41:12;13;13;8
70520;PMS5003;58442;52.716;23.560;2022-09-24T02:43:14;14;14;8
70520;PMS5003;58442;52.716;23.560;2022-09-24T02:45:16;14;13;9
70520;PMS5003;58442;52.716;23.560;2022-09-24T02:47:19;10;10;6
70520;PMS5003;58442;52.716;23.560;2022-09-24T02:49:20;15;13;8
70520;PMS5003;58442;52.716;23.560;2022-09-24T02:51:21;15;14;8
70520;PMS5003;58442;52.716;23.560;2022-09-24T02:53:22;14;14;9
70520;PMS5003;58442;52.716;23.560;2022-09-24T02:55:34;11;11;7
70520;PMS5003;58442;52.716;23.560;2022-09-24T02:57:35;11;11;8
70520;PMS5003;58442;52.716;23.560;2022-09-24T02:59:36;11;11;10
70520;PMS5003;58442;52.716;23.560;2022-09-24T03:01:38;10;9;7
70520;PMS5003;58442;52.716;23.560;2022-09-24T03:03:49;6;6;5
70520;PMS5003;58442;52.716;23.560;2022-09-24T03:05:51;12;12;8
70520;PMS5003;58442;52.716;23.560;2022-09-24T03:07:54;13;13;9
70520;PMS5003;58442;52.716;23.560;2022-09-24T03:09:58;13;11;7
70520;PMS5003;58442;52.716;23.560;2022-09-24T03:12:04;10;9;7
70520;PMS5003;58442;52.716;23.560;2022-09-24T03:14:05;11;11;6
70520;PMS5003;58442;52.716;23.560;2022-09-24T03:16:06;9;9;8
70520;PMS5003;58442;52.716;23.560;2022-09-24T03:18:07;10;10;7
70520;PMS5003;58442;52.716;23.560;2022-09-24T03:20:19;11;11;8
70520;PMS5003;58442;52.716;23.560;2022-09-24T03:22:20;9;9;6
70520;PMS5003;58442;52.716;23.560;2022-09-24T03:24:21;10;10;8
70520;PMS5003;58442;52.716;23.560;2022-09-24T03:26:22;11;11;7
70520;PMS5003;58442;52.716;23.560;2022-09-24T03:28:33;8;8;6
70520;PMS5003;58442;52.716;23.560;2022-09-24T03:30:35;10;10;7
70520;PMS5003;58442;52.716;23.560;2022-09-24T03:32:48;9;9;8
70520;PMS5003;58442;52.716;23.560;2022-09-24T03:34:49;12;12;8
70520;PMS5003;58442;52.716;23.560;2022-09-24T03:36:52;11;10;8
70520;PMS5003;58442;52.716;23.560;2022-09-24T03:38:54;11;11;8
70520;PMS5003;58442;52.716;23.560;2022-09-24T03:40:57;8;8;7
70520;PMS5003;58442;52.716;23.560;2022-09-24T03:42:59;6;6;5
70520;PMS5003;58442;52.716;23.560;2022-09-24T03:45:07;8;8;8
70520;PMS5003;58442;52.716;23.560;2022-09-24T03:47:09;11;11;7
70520;PMS5003;58442;52.716;23.560;2022-09-24T03:49:10;10;10;8
70520;PMS5003;58442;52.716;23.560;2022-09-24T03:51:13;10;10;6
70520;PMS5003;58442;52.716;23.560;2022-09-24T03:53:22;11;9;7
70520;PMS5003;58442;52.716;23.560;2022-09-24T03:55:23;8;8;7
70520;PMS5003;58442;52.716;23.560;2022-09-24T03:57:24;9;9;6
70520;PMS5003;58442;52.716;23.560;2022-09-24T03:59:25;11;11;6
70520;PMS5003;58442;52.716;23.560;2022-09-24T04:01:37;10;10;6
70520;PMS5003;58442;52.716;23.560;2022-09-24T04:03:38;6;6;5
70520;PMS5003;58442;52.716;23.560;2022-09-24T04:05:40;4;4;3
70520;PMS5003;58442;52.716;23.560;2022-09-24T04:07:42;12;11;9
70520;PMS5003;58442;52.716;23.560;2022-09-24T04:09:52;9;9;6
70520;PMS5003;58442;52.716;23.560;2022-09-24T04:11:53;10;10;6
70520;PMS5003;58442;52.716;23.560;2022-09-24T04:13:54;10;10;8
70520;PMS5003;58442;52.716;23.560;2022-09-24T04:16:01;9;9;6
70520;PMS5003;58442;52.716;23.560;2022-09-24T04:18:07;6;6;5
70520;PMS5003;58442;52.716;23.560;2022-09-24T04:20:08;8;8;6
70520;PMS5003;58442;52.716;23.560;2022-09-24T04:22:12;11;8;6
70520;PMS5003;58442;52.716;23.560;2022-09-24T04:24:13;9;9;7
70520;PMS5003;58442;52.716;23.560;2022-09-24T04:26:22;8;8;6
70520;PMS5003;58442;52.716;23.560;2022-09-24T04:28:23;9;8;6
70520;PMS5003;58442;52.716;23.560;2022-09-24T04:30:25;10;10;7
70520;PMS5003;58442;52.716;23.560;2022-09-24T04:32:27;9;9;7
70520;PMS5003;58442;52.716;23.560;2022-09-24T04:34:37;5;5;4
70520;PMS5003;58442;52.716;23.560;2022-09-24T04:36:38;16;14;8
70520;PMS5003;58442;52.716;23.560;2022-09-24T04:38:39;9;9;7
70520;PMS5003;58442;52.716;23.560;2022-09-24T04:40:40;12;11;6
70520;PMS5003;58442;52.716;23.560;2022-09-24T04:42:52;10;10;5
70520;PMS5003;58442;52.716;23.560;2022-09-24T04:44:53;8;8;6
70520;PMS5003;58442;52.716;23.560;2022-09-24T04:46:54;11;11;8
70520;PMS5003;58442;52.716;23.560;2022-09-24T04:49:02;9;9;6
70520;PMS5003;58442;52.716;23.560;2022-09-24T04:51:07;11;10;9
70520;PMS5003;58442;52.716;23.560;2022-09-24T04:53:09;8;8;4
70520;PMS5003;58442;52.716;23.560;2022-09-24T04:55:11;9;9;6
70520;PMS5003;58442;52.716;23.560;2022-09-24T04:57:13;12;12;8
70520;PMS5003;58442;52.716;23.560;2022-09-24T04:59:22;14;13;9
70520;PMS5003;58442;52.716;23.560;2022-09-24T05:01:23;11;11;8
70520;PMS5003;58442;52.716;23.560;2022-09-24T05:03:25;10;9;7
70520;PMS5003;58442;52.716;23.560;2022-09-24T05:05:26;13;12;8
70520;PMS5003;58442;52.716;23.560;2022-09-24T05:07:37;11;11;7
70520;PMS5003;58442;52.716;23.560;2022-09-24T05:09:38;13;13;6
70520;PMS5003;58442;52.716;23.560;2022-09-24T05:11:40;14;12;7
70520;PMS5003;58442;52.716;23.560;2022-09-24T05:13:41;13;13;8
70520;PMS5003;58442;52.716;23.560;2022-09-24T05:15:51;12;12;8
70520;PMS5003;58442;52.716;23.560;2022-09-24T05:17:53;14;14;10
70520;PMS5003;58442;52.716;23.560;2022-09-24T05:19:54;11;11;9
70520;PMS5003;58442;52.716;23.560;2022-09-24T05:21:58;12;12;7
70520;PMS5003;58442;52.716;23.560;2022-09-24T05:24:06;8;8;4
70520;PMS5003;58442;52.716;23.560;2022-09-24T05:26:08;14;14;10
70520;PMS5003;58442;52.716;23.560;2022-09-24T05:28:21;9;9;5
70520;PMS5003;58442;52.716;23.560;2022-09-24T05:30:23;7;7;6
70520;PMS5003;58442;52.716;23.560;2022-09-24T05:32:26;12;11;7
70520;PMS5003;58442;52.716;23.560;2022-09-24T05:34:27;11;11;7
70520;PMS5003;58442;52.716;23.560;2022-09-24T05:36:30;10;10;6
70520;PMS5003;58442;52.716;23.560;2022-09-24T05:38:31;11;10;7
70520;PMS5003;58442;52.716;23.560;2022-09-24T05:40:41;12;12;8
70520;PMS5003;58442;52.716;23.560;2022-09-24T05:42:48;11;11;7
70520;PMS5003;58442;52.716;23.560;2022-09-24T05:44:50;9;9;5
70520;PMS5003;58442;52.716;23.560;2022-09-24T05:46:51;5;5;3
70520;PMS5003;58442;52.716;23.560;2022-09-24T05:48:55;12;12;9
70520;PMS5003;58442;52.716;23.560;2022-09-24T05:50:59;8;8;6
70520;PMS5003;58442;52.716;23.560;2022-09-24T05:53:01;13;13;9
70520;PMS5003;58442;52.716;23.560;2022-09-24T05:55:03;9;9;6
70520;PMS5003;58442;52.716;23.560;2022-09-24T05:57:10;9;9;6
70520;PMS5003;58442;52.716;23.560;2022-09-24T05:59:15;6;6;6
70520;PMS5003;58442;52.716;23.560;2022-09-24T06:01:16;8;8;5
70520;PMS5003;58442;52.716;23.560;2022-09-24T06:03:18;5;4;3
70520;PMS5003;58442;52.716;23.560;2022-09-24T06:05:25;11;11;7
70520;PMS5003;58442;52.716;23.560;2022-09-24T06:09:37;9;9;7
70520;PMS5003;58442;52.716;23.560;2022-09-24T06:11:38;7;7;7
70520;PMS5003;58442;52.716;23.560;2022-09-24T06:13:41;9;8;6
70520;PMS5003;58442;52.716;23.560;2022-09-24T06:15:42;8;7;5
70520;PMS5003;58442;52.716;23.560;2022-09-24T06:17:44;7;7;5
70520;PMS5003;58442;52.716;23.560;2022-09-24T06:19:45;7;7;5
70520;PMS5003;58442;52.716;23.560;2022-09-24T06:21:56;10;9;7
70520;PMS5003;58442;52.716;23.560;2022-09-24T06:23:57;7;7;5
70520;PMS5003;58442;52.716;23.560;2022-09-24T06:25:58;8;8;5
70520;PMS5003;58442;52.716;23.560;2022-09-24T06:28:00;9;8;5
70520;PMS5003;58442;52.716;23.560;2022-09-24T06:30:11;9;9;6
70520;PMS5003;58442;52.716;23.560;2022-09-24T06:32:13;11;11;5
70520;PMS5003;58442;52.716;23.560;2022-09-24T06:34:14;10;10;7
70520;PMS5003;58442;52.716;23.560;2022-09-24T06:36:15;11;11;8
70520;PMS5003;58442;52.716;23.560;2022-09-24T06:38:26;12;12;8
70520;PMS5003;58442;52.716;23.560;2022-09-24T06:40:28;10;10;7
70520;PMS5003;58442;52.716;23.560;2022-09-24T06:42:29;10;10;6
70520;PMS5003;58442;52.716;23.560;2022-09-24T06:44:30;7;7;5
70520;PMS5003;58442;52.716;23.560;2022-09-24T06:46:41;12;12;7
70520;PMS5003;58442;52.716;23.560;2022-09-24T06:48:42;11;11;7
70520;PMS5003;58442;52.716;23.560;2022-09-24T06:50:43;10;10;6
70520;PMS5003;58442;52.716;23.560;2022-09-24T06:52:44;15;14;8
70520;PMS5003;58442;52.716;23.560;2022-09-24T06:54:56;10;10;7
70520;PMS5003;58442;52.716;23.560;2022-09-24T06:56:57;13;13;7
70520;PMS5003;58442;52.716;23.560;2022-09-24T06:58:58;10;10;7
70520;PMS5003;58442;52.716;23.560;2022-09-24T07:01:00;9;7;6
70520;PMS5003;58442;52.716;23.560;2022-09-24T07:03:12;10;10;8
70520;PMS5003;58442;52.716;23.560;2022-09-24T07:05:16;9;9;6
70520;PMS5003;58442;52.716;23.560;2022-09-24T07:07:17;11;11;7
70520;PMS5003;58442;52.716;23.560;2022-09-24T07:09:30;8;8;6
70520;PMS5003;58442;52.716;23.560;2022-09-24T07:11:31;8;8;6
70520;PMS5003;58442;52.716;23.560;2022-09-24T07:13:32;4;4;4
70520;PMS5003;58442;52.716;23.560;2022-09-24T07:15:33;8;8;6
70520;PMS5003;58442;52.716;23.560;2022-09-24T07:17:35;8;8;6
70520;PMS5003;58442;52.716;23.560;2022-09-24T07:19:40;8;8;6
70520;PMS5003;58442;52.716;23.560;2022-09-24T07:21:42;12;12;7
70520;PMS5003;58442;52.716;23.560;2022-09-24T07:23:43;10;10;8
70520;PMS5003;58442;52.716;23.560;2022-09-24T07:25:44;10;9;6
70520;PMS5003;58442;52.716;23.560;2022-09-24T07:27:59;8;8;6
70520;PMS5003;58442;52.716;23.560;2022-09-24T07:30:05;10;10;6
70520;PMS5003;58442;52.716;23.560;2022-09-24T07:32:07;8;8;5
70520;PMS5003;58442;52.716;23.560;2022-09-24T07:34:09;9;9;7
70520;PMS5003;58442;52.716;23.560;2022-09-24T07:36:12;11;11;6
70520;PMS5003;58442;52.716;23.560;2022-09-24T07:38:13;11;11;6
70520;PMS5003;58442;52.716;23.560;2022-09-24T07:40:16;7;7;5
70520;PMS5003;58442;52.716;23.560;2022-09-24T07:42:19;8;8;5
70520;PMS5003;58442;52.716;23.560;2022-09-24T07:44:27;10;10;6
70520;PMS5003;58442;52.716;23.560;2022-09-24T07:46:28;10;10;7
70520;PMS5003;58442;52.716;23.560;2022-09-24T07:48:29;11;11;7
70520;PMS5003;58442;52.716;23.560;2022-09-24T07:50:32;10;8;4
70520;PMS5003;58442;52.716;23.560;2022-09-24T07:52:41;7;7;5
70520;PMS5003;58442;52.716;23.560;2022-09-24T07:54:42;5;5;3
70520;PMS5003;58442;52.716;23.560;2022-09-24T07:56:44;7;7;6
70520;PMS5003;58442;52.716;23.560;2022-09-24T07:58:48;2;2;2
70520;PMS5003;58442;52.716;23.560;2022-09-24T08:00:59;4;4;3
70520;PMS5003;58442;52.716;23.560;2022-09-24T08:03:01;3;3;2
70520;PMS5003;58442;52.716;23.560;2022-09-24T08:05:04;6;6;3
70520;PMS5003;58442;52.716;23.560;2022-09-24T08:07:06;8;8;6
70520;PMS5003;58442;52.716;23.560;2022-09-24T08:09:11;3;3;3
70520;PMS5003;58442;52.716;23.560;2022-09-24T08:11:15;4;4;3
70520;PMS5003;58442;52.716;23.560;2022-09-24T08:13:17;2;2;1
70520;PMS5003;58442;52.716;23.560;2022-09-24T08:15:18;2;2;2
70520;PMS5003;58442;52.716;23.560;2022-09-24T08:17:26;2;2;2
70520;PMS5003;58442;52.716;23.560;2022-09-24T08:19:27;2;2;2
70520;PMS5003;58442;52.716;23.560;2022-09-24T08:21:32;3;3;3
70520;PMS5003;58442;52.716;23.560;2022-09-24T08:23:33;2;2;2
70520;PMS5003;58442;52.716;23.560;2022-09-24T08:25:41;2;2;2
70520;PMS5003;58442;52.716;23.560;2022-09-24T08:27:42;3;3;2
70520;PMS5003;58442;52.716;23.560;2022-09-24T08:29:43;2;2;1
70520;PMS5003;58442;52.716;23.560;2022-09-24T08:31:45;1;1;0
70520;PMS5003;58442;52.716;23.560;2022-09-24T08:33:56;2;2;1
70520;PMS5003;58442;52.716;23.560;2022-09-24T08:36:00;1;1;1
70520;PMS5003;58442;52.716;23.560;2022-09-24T08:38:03;0;0;0
70520;PMS5003;58442;52.716;23.560;2022-09-24T08:40:04;1;1;1
70520;PMS5003;58442;52.716;23.560;2022-09-24T08:42:11;1;1;1
70520;PMS5003;58442;52.716;23.560;2022-09-24T08:44:22;2;2;2
70520;PMS5003;58442;52.716;23.560;2022-09-24T08:46:46;2;2;2
70520;PMS5003;58442;52.716;23.560;2022-09-24T08:49:04;1;1;1
70520;PMS5003;58442;52.716;23.560;2022-09-24T08:51:11;0;0;0
70520;PMS5003;58442;52.716;23.560;2022-09-24T08:55:36;1;1;1
70520;PMS5003;58442;52.716;23.560;2022-09-24T09:05:42;1;1;1
70520;PMS5003;58442;52.716;23.560;2022-09-24T09:07:51;1;1;1
70520;PMS5003;58442;52.716;23.560;2022-09-24T09:12:18;0;0;0
70520;PMS5003;58442;52.716;23.560;2022-09-24T09:19:10;0;0;0
70520;PMS5003;58442;52.716;23.560;2022-09-24T09:21:24;0;0;0
70520;PMS5003;58442;52.716;23.560;2022-09-24T09:23:30;0;0;0
70520;PMS5003;58442;52.716;23.560;2022-09-24T09:25:37;0;0;0
70520;PMS5003;58442;52.716;23.560;2022-09-24T09:27:42;1;1;1
70520;PMS5003;58442;52.716;23.560;2022-09-24T09:29:55;1;1;1
70520;PMS5003;58442;52.716;23.560;2022-09-24T09:32:04;0;0;0
70520;PMS5003;58442;52.716;23.560;2022-09-24T09:43:11;1;1;0
70520;PMS5003;58442;52.716;23.560;2022-09-24T09:52:27;0;0;0
70520;PMS5003;58442;52.716;23.560;2022-09-24T09:54:36;1;1;1
70520;PMS5003;58442;52.716;23.560;2022-09-24T09:58:47;1;1;1
70520;PMS5003;58442;52.716;23.560;2022-09-24T10:03:04;8;8;5
70520;PMS5003;58442;52.716;23.560;2022-09-24T10:05:05;39;35;21
70520;PMS5003;58442;52.716;23.560;2022-09-24T10:07:16;3;3;3
70520;PMS5003;58442;52.716;23.560;2022-09-24T10:09:18;2;2;1
70520;PMS5003;58442;52.716;23.560;2022-09-24T10:11:21;2;2;2
70520;PMS5003;58442;52.716;23.560;2022-09-24T10:13:22;3;3;3
70520;PMS5003;58442;52.716;23.560;2022-09-24T10:15:24;1;1;1
70520;PMS5003;58442;52.716;23.560;2022-09-24T10:17:43;1;1;1
70520;PMS5003;58442;52.716;23.560;2022-09-24T10:19:38;0;0;0
70520;PMS5003;58442;52.716;23.560;2022-09-24T10:21:56;2;2;2
70520;PMS5003;58442;52.716;23.560;2022-09-24T10:24:03;0;0;0
70520;PMS5003;58442;52.716;23.560;2022-09-24T10:26:11;1;1;1
70520;PMS5003;58442;52.716;23.560;2022-09-24T10:28:14;1;1;1
70520;PMS5003;58442;52.716;23.560;2022-09-24T10:30:31;0;0;0
70520;PMS5003;58442;52.716;23.560;2022-09-24T10:32:37;2;2;2
70520;PMS5003;58442;52.716;23.560;2022-09-24T10:34:40;1;1;1
70520;PMS5003;58442;52.716;23.560;2022-09-24T10:36:48;1;1;1
70520;PMS5003;58442;52.716;23.560;2022-09-24T10:43:17;2;2;1
70520;PMS5003;58442;52.716;23.560;2022-09-24T10:45:20;1;1;0
70520;PMS5003;58442;52.716;23.560;2022-09-24T10:47:30;1;1;0
70520;PMS5003;58442;52.716;23.560;2022-09-24T10:49:42;4;4;2
70520;PMS5003;58442;52.716;23.560;2022-09-24T11:01:03;1;1;1
70520;PMS5003;58442;52.716;23.560;2022-09-24T11:03:22;0;0;0
70520;PMS5003;58442;52.716;23.560;2022-09-24T11:05:40;1;1;1
70520;PMS5003;58442;52.716;23.560;2022-09-24T11:22:37;1;1;1
70520;PMS5003;58442;52.716;23.560;2022-09-24T11:37:45;1;1;1
70520;PMS5003;58442;52.716;23.560;2022-09-24T11:42:23;0;0;0
70520;PMS5003;58442;52.716;23.560;2022-09-24T11:46:56;1;1;1
70520;PMS5003;58442;52.716;23.560;2022-09-24T11:51:21;8;8;6
70520;PMS5003;58442;52.716;23.560;2022-09-24T11:55:47;2;2;2
70520;PMS5003;58442;52.716;23.560;2022-09-24T12:00:16;2;2;2
70520;PMS5003;58442;52.716;23.560;2022-09-24T12:02:21;2;2;2
70520;PMS5003;58442;52.716;23.560;2022-09-24T12:06:45;4;4;3
70520;PMS5003;58442;52.716;23.560;2022-09-24T12:09:04;1;1;1
70520;PMS5003;58442;52.716;23.560;2022-09-24T12:11:18;2;1;1
70520;PMS5003;58442;52.716;23.560;2022-09-24T12:13:23;1;1;1
70520;PMS5003;58442;52.716;23.560;2022-09-24T12:15:47;2;2;2
70520;PMS5003;58442;52.716;23.560;2022-09-24T12:18:00;2;2;2
70520;PMS5003;58442;52.716;23.560;2022-09-24T12:22:20;2;2;1
70520;PMS5003;58442;52.716;23.560;2022-09-24T12:24:28;2;2;2
70520;PMS5003;58442;52.716;23.560;2022-09-24T12:26:34;3;3;1
70520;PMS5003;58442;52.716;23.560;2022-09-24T12:28:50;6;6;5
70520;PMS5003;58442;52.716;23.560;2022-09-24T12:33:38;3;3;2
70520;PMS5003;58442;52.716;23.560;2022-09-24T12:42:55;10;10;5
70520;PMS5003;58442;52.716;23.560;2022-09-24T12:44:59;9;8;8
70520;PMS5003;58442;52.716;23.560;2022-09-24T12:47:04;4;4;3
70520;PMS5003;58442;52.716;23.560;2022-09-24T12:49:16;10;10;6
70520;PMS5003;58442;52.716;23.560;2022-09-24T12:53:35;2;2;2
70520;PMS5003;58442;52.716;23.560;2022-09-24T12:55:43;0;0;0
70520;PMS5003;58442;52.716;23.560;2022-09-24T12:59:55;2;2;1
70520;PMS5003;58442;52.716;23.560;2022-09-24T13:06:35;0;0;0
70520;PMS5003;58442;52.716;23.560;2022-09-24T13:08:38;0;0;0
70520;PMS5003;58442;52.716;23.560;2022-09-24T13:10:40;1;1;1
70520;PMS5003;58442;52.716;23.560;2022-09-24T13:12:52;2;2;2
70520;PMS5003;58442;52.716;23.560;2022-09-24T13:14:59;2;2;2
70520;PMS5003;58442;52.716;23.560;2022-09-24T13:17:11;2;2;1
70520;PMS5003;58442;52.716;23.560;2022-09-24T13:21:27;3;3;3
70520;PMS5003;58442;52.716;23.560;2022-09-24T13:25:53;0;0;0
70520;PMS5003;58442;52.716;23.560;2022-09-24T13:27:58;0;0;0
70520;PMS5003;58442;52.716;23.560;2022-09-24T13:30:05;0;0;0
70520;PMS5003;58442;52.716;23.560;2022-09-24T13:32:17;1;1;1
70520;PMS5003;58442;52.716;23.560;2022-09-24T13:34:23;3;3;2
70520;PMS5003;58442;52.716;23.560;2022-09-24T13:41:06;1;1;1
70520;PMS5003;58442;52.716;23.560;2022-09-24T13:43:31;1;1;1
70520;PMS5003;58442;52.716;23.560;2022-09-24T13:45:45;0;0;0
70520;PMS5003;58442;52.716;23.560;2022-09-24T13:47:50;1;1;1
70520;PMS5003;58442;52.716;23.560;2022-09-24T13:54:33;1;1;1
70520;PMS5003;58442;52.716;23.560;2022-09-24T13:56:36;0;0;0
70520;PMS5003;58442;52.716;23.560;2022-09-24T13:58:46;1;1;0
70520;PMS5003;58442;52.716;23.560;2022-09-24T14:00:50;1;1;1
70520;PMS5003;58442;52.716;23.560;2022-09-24T14:02:53;1;1;1
70520;PMS5003;58442;52.716;23.560;2022-09-24T14:05:02;2;2;2
70520;PMS5003;58442;52.716;23.560;2022-09-24T14:07:12;0;0;0
70520;PMS5003;58442;52.716;23.560;2022-09-24T14:09:25;0;0;0
70520;PMS5003;58442;52.716;23.560;2022-09-24T14:11:32;0;0;0
70520;PMS5003;58442;52.716;23.560;2022-09-24T14:13:33;0;0;0
70520;PMS5003;58442;52.716;23.560;2022-09-24T14:15:48;1;1;1
70520;PMS5003;58442;52.716;23.560;2022-09-24T14:17:58;3;2;2
70520;PMS5003;58442;52.716;23.560;2022-09-24T14:19:59;4;4;3
70520;PMS5003;58442;52.716;23.560;2022-09-24T14:22:01;2;2;2
70520;PMS5003;58442;52.716;23.560;2022-09-24T14:24:05;1;1;1
70520;PMS5003;58442;52.716;23.560;2022-09-24T14:28:28;1;1;1
70520;PMS5003;58442;52.716;23.560;2022-09-24T14:30:34;1;1;1
70520;PMS5003;58442;52.716;23.560;2022-09-24T14:32:43;1;1;1
70520;PMS5003;58442;52.716;23.560;2022-09-24T14:34:45;1;1;1
70520;PMS5003;58442;52.716;23.560;2022-09-24T14:36:51;0;0;0
70520;PMS5003;58442;52.716;23.560;2022-09-24T14:38:59;0;0;0
70520;PMS5003;58442;52.716;23.560;2022-09-24T14:43:21;0;0;0
70520;PMS5003;58442;52.716;23.560;2022-09-24T14:45:32;0;0;0
70520;PMS5003;58442;52.716;23.560;2022-09-24T14:47:37;0;0;0
70520;PMS5003;58442;52.716;23.560;2022-09-24T14:49:42;0;0;0
70520;PMS5003;58442;52.716;23.560;2022-09-24T14:54:00;0;0;0
70520;PMS5003;58442;52.716;23.560;2022-09-24T15:02:51;1;1;1
70520;PMS5003;58442;52.716;23.560;2022-09-24T15:05:04;1;1;0
70520;PMS5003;58442;52.716;23.560;2022-09-24T15:09:23;4;4;3
70520;PMS5003;58442;52.716;23.560;2022-09-24T15:11:26;4;4;3
70520;PMS5003;58442;52.716;23.560;2022-09-24T15:13:35;6;6;4
70520;PMS5003;58442;52.716;23.560;2022-09-24T15:15:44;9;9;6
70520;PMS5003;58442;52.716;23.560;2022-09-24T15:17:46;5;5;5
70520;PMS5003;58442;52.716;23.560;2022-09-24T15:19:47;7;7;6
70520;PMS5003;58442;52.716;23.560;2022-09-24T15:21:55;7;7;6
70520;PMS5003;58442;52.716;23.560;2022-09-24T15:23:59;8;6;4
70520;PMS5003;58442;52.716;23.560;2022-09-24T15:26:01;6;6;5
70520;PMS5003;58442;52.716;23.560;2022-09-24T15:28:02;5;5;5
70520;PMS5003;58442;52.716;23.560;2022-09-24T15:30:05;7;7;5
70520;PMS5003;58442;52.716;23.560;2022-09-24T15:32:14;7;7;5
70520;PMS5003;58442;52.716;23.560;2022-09-24T15:34:19;5;5;4
70520;PMS5003;58442;52.716;23.560;2022-09-24T15:36:20;9;9;6
70520;PMS5003;58442;52.716;23.560;2022-09-24T15:38:22;5;5;4
70520;PMS5003;58442;52.716;23.560;2022-09-24T15:40:28;5;5;4
70520;PMS5003;58442;52.716;23.560;2022-09-24T15:42:36;6;6;5
70520;PMS5003;58442;52.716;23.560;2022-09-24T15:44:37;4;4;3
70520;PMS5003;58442;52.716;23.560;2022-09-24T15:46:39;4;4;3
70520;PMS5003;58442;52.716;23.560;2022-09-24T15:48:43;1;1;1
70520;PMS5003;58442;52.716;23.560;2022-09-24T15:50:44;4;4;3
70520;PMS5003;58442;52.716;23.560;2022-09-24T15:54:59;5;3;3
70520;PMS5003;58442;52.716;23.560;2022-09-24T15:57:02;2;2;2
70520;PMS5003;58442;52.716;23.560;2022-09-24T15:59:22;1;1;1
70520;PMS5003;58442;52.716;23.560;2022-09-24T16:01:16;1;1;1
70520;PMS5003;58442;52.716;23.560;2022-09-24T16:03:28;2;2;2
70520;PMS5003;58442;52.716;23.560;2022-09-24T16:05:28;3;3;2
70520;PMS5003;58442;52.716;23.560;2022-09-24T16:07:39;1;1;1
70520;PMS5003;58442;52.716;23.560;2022-09-24T16:09:41;2;2;2
70520;PMS5003;58442;52.716;23.560;2022-09-24T16:11:42;2;2;2
70520;PMS5003;58442;52.716;23.560;2022-09-24T16:13:43;1;1;1
70520;PMS5003;58442;52.716;23.560;2022-09-24T16:15:54;0;0;0
70520;PMS5003;58442;52.716;23.560;2022-09-24T16:17:55;1;1;1
70520;PMS5003;58442;52.716;23.560;2022-09-24T16:19:56;1;1;1
70520;PMS5003;58442;52.716;23.560;2022-09-24T16:21:57;1;1;1
70520;PMS5003;58442;52.716;23.560;2022-09-24T16:24:09;1;1;1
70520;PMS5003;58442;52.716;23.560;2022-09-24T16:26:10;0;0;0
70520;PMS5003;58442;52.716;23.560;2022-09-24T16:28:11;0;0;0
70520;PMS5003;58442;52.716;23.560;2022-09-24T16:30:12;1;1;1
70520;PMS5003;58442;52.716;23.560;2022-09-24T16:32:23;0;0;0